sensor_id;sensor_type;location;lat;lon;timestamp;pressure;altitude;pressure_sealevel;temperature;humidity
71791;BME280;59638;52.126;5.434;2023-05-09T00:01:12;101906.88;;;13.27;100.00
71791;BME280;59638;52.126;5.434;2023-05-09T00:03:39;101906.28;;;13.24;100.00
71791;BME280;59638;52.126;5.434;2023-05-09T00:06:06;101898.63;;;13.21;100.00
71791;BME280;59638;52.126;5.434;2023-05-09T00:08:32;101891.69;;;13.18;100.00
71791;BME280;59638;52.126;5.434;2023-05-09T00:11:00;101891.50;;;13.21;100.00
71791;BME280;59638;52.126;5.434;2023-05-09T00:13:26;101891.22;;;13.24;100.00
71791;BME280;59638;52.126;5.434;2023-05-09T00:15:53;101895.09;;;13.20;100.00
71791;BME280;59638;52.126;5.434;2023-05-09T00:18:20;101891.69;;;13.18;100.00
71791;BME280;59638;52.126;5.434;2023-05-09T00:20:47;101888.34;;;13.16;100.00
71791;BME280;59638;52.126;5.434;2023-05-09T00:23:14;101886.53;;;13.17;100.00
71791;BME280;59638;52.126;5.434;2023-05-09T00:25:42;101887.50;;;13.16;100.00
71791;BME280;59638;52.126;5.434;2023-05-09T00:28:08;101884.72;;;13.17;100.00
71791;BME280;59638;52.126;5.434;2023-05-09T00:30:34;101885.84;;;13.15;100.00
71791;BME280;59638;52.126;5.434;2023-05-09T00:33:01;101890.53;;;13.11;100.00
71791;BME280;59638;52.126;5.434;2023-05-09T00:35:27;101885.50;;;13.08;100.00
71791;BME280;59638;52.126;5.434;2023-05-09T00:37:54;101894.41;;;13.07;100.00
71791;BME280;59638;52.126;5.434;2023-05-09T00:40:20;101884.06;;;13.04;100.00
71791;BME280;59638;52.126;5.434;2023-05-09T00:42:47;101881.28;;;13.05;100.00
71791;BME280;59638;52.126;5.434;2023-05-09T00:45:13;101882.25;;;13.04;100.00
71791;BME280;59638;52.126;5.434;2023-05-09T00:47:40;101877.09;;;13.03;100.00
71791;BME280;59638;52.126;5.434;2023-05-09T00:50:07;101877.34;;;13.00;100.00
71791;BME280;59638;52.126;5.434;2023-05-09T00:52:34;101875.16;;;13.05;100.00
71791;BME280;59638;52.126;5.434;2023-05-09T00:55:01;101867.66;;;13.10;100.00
71791;BME280;59638;52.126;5.434;2023-05-09T00:57:28;101872.69;;;13.13;100.00
71791;BME280;59638;52.126;5.434;2023-05-09T00:59:54;101875.22;;;13.15;100.00
71791;BME280;59638;52.126;5.434;2023-05-09T01:02:21;101875.78;;;13.18;100.00
71791;BME280;59638;52.126;5.434;2023-05-09T01:04:47;101866.88;;;13.19;100.00
71791;BME280;59638;52.126;5.434;2023-05-09T01:07:40;101859.69;;;13.21;100.00
71791;BME280;59638;52.126;5.434;2023-05-09T01:12:59;101847.13;;;13.23;100.00
71791;BME280;59638;52.126;5.434;2023-05-09T01:15:39;101838.47;;;13.21;100.00
71791;BME280;59638;52.126;5.434;2023-05-09T01:18:20;101845.66;;;13.19;100.00
71791;BME280;59638;52.126;5.434;2023-05-09T01:20:54;101832.53;;;13.18;100.00
71791;BME280;59638;52.126;5.434;2023-05-09T01:31:25;101816.06;;;13.14;100.00
71791;BME280;59638;52.126;5.434;2023-05-09T01:33:55;101814.38;;;13.13;100.00
71791;BME280;59638;52.126;5.434;2023-05-09T01:36:26;101814.38;;;13.13;100.00
71791;BME280;59638;52.126;5.434;2023-05-09T01:38:55;101812.69;;;13.12;100.00
71791;BME280;59638;52.126;5.434;2023-05-09T01:41:26;101813.66;;;13.11;100.00
71791;BME280;59638;52.126;5.434;2023-05-09T01:43:58;101813.81;;;13.10;100.00
71791;BME280;59638;52.126;5.434;2023-05-09T01:46:27;101815.63;;;13.09;100.00
71791;BME280;59638;52.126;5.434;2023-05-09T01:48:55;101808.63;;;13.08;100.00
71791;BME280;59638;52.126;5.434;2023-05-09T01:51:23;101798.97;;;13.07;100.00
71791;BME280;59638;52.126;5.434;2023-05-09T01:53:52;101802.59;;;13.06;100.00
71791;BME280;59638;52.126;5.434;2023-05-09T01:56:21;101797.44;;;13.04;100.00
71791;BME280;59638;52.126;5.434;2023-05-09T01:58:49;101801.78;;;13.05;100.00
71791;BME280;59638;52.126;5.434;2023-05-09T02:01:17;101802.59;;;13.06;100.00
71791;BME280;59638;52.126;5.434;2023-05-09T02:03:47;101803.13;;;13.00;100.00
71791;BME280;59638;52.126;5.434;2023-05-09T02:06:17;101793.91;;;12.94;100.00
71791;BME280;59638;52.126;5.434;2023-05-09T02:08:46;101796.41;;;12.96;100.00
71791;BME280;59638;52.126;5.434;2023-05-09T02:11:13;101793.03;;;12.94;100.00
71791;BME280;59638;52.126;5.434;2023-05-09T02:13:39;101782.44;;;12.94;100.00
71791;BME280;59638;52.126;5.434;2023-05-09T02:16:06;101779.78;;;12.94;100.00
71791;BME280;59638;52.126;5.434;2023-05-09T02:18:33;101786.78;;;12.95;100.00
71791;BME280;59638;52.126;5.434;2023-05-09T02:21:01;101779.78;;;12.94;100.00
71791;BME280;59638;52.126;5.434;2023-05-09T02:23:28;101781.88;;;12.90;100.00
71791;BME280;59638;52.126;5.434;2023-05-09T02:25:55;101775.75;;;12.90;100.00
71791;BME280;59638;52.126;5.434;2023-05-09T02:28:22;101764.44;;;12.88;100.00
71791;BME280;59638;52.126;5.434;2023-05-09T02:30:51;101767.09;;;12.88;100.00
71791;BME280;59638;52.126;5.434;2023-05-09T02:33:18;101763.72;;;12.86;100.00
71791;BME280;59638;52.126;5.434;2023-05-09T02:35:45;101767.34;;;12.85;100.00
71791;BME280;59638;52.126;5.434;2023-05-09T02:38:12;101764.81;;;12.83;100.00
71791;BME280;59638;52.126;5.434;2023-05-09T02:40:41;101763.97;;;12.83;100.00
71791;BME280;59638;52.126;5.434;2023-05-09T02:43:08;101770.34;;;12.80;100.00
71791;BME280;59638;52.126;5.434;2023-05-09T02:45:34;101774.81;;;12.79;100.00
71791;BME280;59638;52.126;5.434;2023-05-09T02:48:01;101776.78;;;12.77;100.00
71791;BME280;59638;52.126;5.434;2023-05-09T02:50:28;101777.88;;;12.75;100.00
71791;BME280;59638;52.126;5.434;2023-05-09T02:52:54;101766.44;;;12.74;100.00
71791;BME280;59638;52.126;5.434;2023-05-09T02:55:20;101771.00;;;12.72;100.00
71791;BME280;59638;52.126;5.434;2023-05-09T02:57:47;101759.00;;;12.68;100.00
71791;BME280;59638;52.126;5.434;2023-05-09T03:00:21;101756.59;;;12.65;100.00
71791;BME280;59638;52.126;5.434;2023-05-09T03:02:50;101758.53;;;12.63;100.00
71791;BME280;59638;52.126;5.434;2023-05-09T03:05:16;101747.94;;;12.63;100.00
71791;BME280;59638;52.126;5.434;2023-05-09T03:07:43;101755.91;;;12.63;100.00
71791;BME280;59638;52.126;5.434;2023-05-09T03:10:10;101748.50;;;12.67;100.00
71791;BME280;59638;52.126;5.434;2023-05-09T03:12:39;101741.16;;;12.70;100.00
71791;BME280;59638;52.126;5.434;2023-05-09T03:15:09;101741.88;;;12.72;100.00
71791;BME280;59638;52.126;5.434;2023-05-09T03:17:35;101738.25;;;12.73;100.00
71791;BME280;59638;52.126;5.434;2023-05-09T03:20:02;101734.38;;;12.77;100.00
71791;BME280;59638;52.126;5.434;2023-05-09T03:22:30;101736.75;;;12.80;100.00
71791;BME280;59638;52.126;5.434;2023-05-09T03:24:57;101727.72;;;12.83;100.00
71791;BME280;59638;52.126;5.434;2023-05-09T03:27:23;101726.59;;;12.86;100.00
71791;BME280;59638;52.126;5.434;2023-05-09T03:29:51;101719.38;;;12.88;100.00
71791;BME280;59638;52.126;5.434;2023-05-09T03:32:17;101714.94;;;12.88;100.00
71791;BME280;59638;52.126;5.434;2023-05-09T03:34:44;101718.41;;;12.89;100.00
71791;BME280;59638;52.126;5.434;2023-05-09T03:37:10;101711.16;;;12.91;100.00
71791;BME280;59638;52.126;5.434;2023-05-09T03:39:36;101703.22;;;12.91;100.00
71791;BME280;59638;52.126;5.434;2023-05-09T03:42:03;101706.56;;;12.93;100.00
71791;BME280;59638;52.126;5.434;2023-05-09T03:44:29;101702.94;;;12.94;100.00
71791;BME280;59638;52.126;5.434;2023-05-09T03:46:55;101686.78;;;12.97;100.00
71791;BME280;59638;52.126;5.434;2023-05-09T03:49:22;101689.28;;;12.98;100.00
71791;BME280;59638;52.126;5.434;2023-05-09T03:51:48;101691.81;;;13.00;100.00
71791;BME280;59638;52.126;5.434;2023-05-09T03:54:15;101681.22;;;13.00;100.00
71791;BME280;59638;52.126;5.434;2023-05-09T03:56:41;101680.25;;;13.01;100.00
71791;BME280;59638;52.126;5.434;2023-05-09T03:59:08;101681.09;;;13.01;100.00
71791;BME280;59638;52.126;5.434;2023-05-09T04:01:34;101670.59;;;13.00;100.00
71791;BME280;59638;52.126;5.434;2023-05-09T04:04:03;101668.69;;;13.02;100.00
71791;BME280;59638;52.126;5.434;2023-05-09T04:06:29;101673.16;;;13.01;100.00
71791;BME280;59638;52.126;5.434;2023-05-09T04:08:56;101665.06;;;13.03;100.00
71791;BME280;59638;52.126;5.434;2023-05-09T04:11:22;101666.03;;;13.02;100.00
71791;BME280;59638;52.126;5.434;2023-05-09T04:13:49;101666.72;;;13.04;100.00
71791;BME280;59638;52.126;5.434;2023-05-09T04:16:15;101666.72;;;13.04;100.00
71791;BME280;59638;52.126;5.434;2023-05-09T04:18:42;101672.03;;;13.04;100.00
71791;BME280;59638;52.126;5.434;2023-05-09T04:21:08;101666.44;;;13.07;100.00
71791;BME280;59638;52.126;5.434;2023-05-09T04:23:34;101673.44;;;13.08;100.00
71791;BME280;59638;52.126;5.434;2023-05-09T04:26:01;101674.41;;;13.07;100.00
71791;BME280;59638;52.126;5.434;2023-05-09T04:28:27;101671.75;;;13.07;100.00
71791;BME280;59638;52.126;5.434;2023-05-09T04:30:54;101677.06;;;13.07;100.00
71791;BME280;59638;52.126;5.434;2023-05-09T04:33:20;101671.75;;;13.07;100.00
71791;BME280;59638;52.126;5.434;2023-05-09T04:35:49;101673.56;;;13.06;100.00
71791;BME280;59638;52.126;5.434;2023-05-09T04:38:16;101675.81;;;13.11;100.00
71791;BME280;59638;52.126;5.434;2023-05-09T04:40:43;101664.25;;;13.12;100.00
71791;BME280;59638;52.126;5.434;2023-05-09T04:43:09;101663.16;;;13.15;100.00
71791;BME280;59638;52.126;5.434;2023-05-09T04:45:36;101667.34;;;13.17;100.00
71791;BME280;59638;52.126;5.434;2023-05-09T04:48:02;101658.41;;;13.18;100.00
71791;BME280;59638;52.126;5.434;2023-05-09T04:50:29;101650.44;;;13.18;100.00
71791;BME280;59638;52.126;5.434;2023-05-09T04:52:56;101653.25;;;13.17;100.00
71791;BME280;59638;52.126;5.434;2023-05-09T04:55:22;101656.72;;;13.17;100.00
71791;BME280;59638;52.126;5.434;2023-05-09T04:57:48;101644.16;;;13.19;100.00
71791;BME280;59638;52.126;5.434;2023-05-09T05:00:15;101645.75;;;13.22;100.00
71791;BME280;59638;52.126;5.434;2023-05-09T05:02:42;101637.53;;;13.25;100.00
71791;BME280;59638;52.126;5.434;2023-05-09T05:05:09;101647.03;;;13.27;100.00
71791;BME280;59638;52.126;5.434;2023-05-09T05:07:38;101642.97;;;13.33;100.00
71791;BME280;59638;52.126;5.434;2023-05-09T05:10:04;101641.34;;;13.42;100.00
71791;BME280;59638;52.126;5.434;2023-05-09T05:12:31;101631.16;;;13.47;100.00
71791;BME280;59638;52.126;5.434;2023-05-09T05:14:58;101626.00;;;13.55;100.00
71791;BME280;59638;52.126;5.434;2023-05-09T05:17:24;101628.94;;;13.62;100.00
71791;BME280;59638;52.126;5.434;2023-05-09T05:19:51;101626.97;;;13.73;100.00
71791;BME280;59638;52.126;5.434;2023-05-09T05:22:17;101609.56;;;13.80;100.00
71791;BME280;59638;52.126;5.434;2023-05-09T05:24:44;101606.91;;;13.80;100.00
71791;BME280;59638;52.126;5.434;2023-05-09T05:27:10;101606.59;;;13.83;100.00
71791;BME280;59638;52.126;5.434;2023-05-09T05:29:36;101600.44;;;13.93;100.00
71791;BME280;59638;52.126;5.434;2023-05-09T05:32:03;101589.00;;;13.92;100.00
71791;BME280;59638;52.126;5.434;2023-05-09T05:34:29;101595.13;;;14.02;100.00
71791;BME280;59638;52.126;5.434;2023-05-09T05:36:56;101596.66;;;14.14;100.00
71791;BME280;59638;52.126;5.434;2023-05-09T05:39:22;101592.31;;;14.23;100.00
71791;BME280;59638;52.126;5.434;2023-05-09T05:41:49;101591.75;;;14.29;100.00
71791;BME280;59638;52.126;5.434;2023-05-09T05:44:17;101590.19;;;14.36;100.00
71791;BME280;59638;52.126;5.434;2023-05-09T05:46:43;101594.22;;;14.50;100.00
71791;BME280;59638;52.126;5.434;2023-05-09T05:49:09;101591.41;;;14.61;100.00
71791;BME280;59638;52.126;5.434;2023-05-09T05:51:36;101584.66;;;14.67;100.00
71791;BME280;59638;52.126;5.434;2023-05-09T05:54:02;101587.94;;;14.79;100.00
71791;BME280;59638;52.126;5.434;2023-05-09T05:56:29;101579.53;;;14.83;100.00
71791;BME280;59638;52.126;5.434;2023-05-09T05:58:55;101584.00;;;14.92;100.00
71791;BME280;59638;52.126;5.434;2023-05-09T06:01:22;101575.31;;;14.90;100.00
71791;BME280;59638;52.126;5.434;2023-05-09T06:03:48;101569.16;;;14.90;100.00
71791;BME280;59638;52.126;5.434;2023-05-09T06:06:23;101574.72;;;14.96;100.00
71791;BME280;59638;52.126;5.434;2023-05-09T06:08:51;101578.59;;;15.02;100.00
71791;BME280;59638;52.126;5.434;2023-05-09T06:11:17;101576.09;;;15.01;100.00
71791;BME280;59638;52.126;5.434;2023-05-09T06:13:44;101568.41;;;14.98;100.00
71791;BME280;59638;52.126;5.434;2023-05-09T06:16:10;101570.06;;;14.99;100.00
71791;BME280;59638;52.126;5.434;2023-05-09T06:18:45;101563.81;;;15.00;100.00
71791;BME280;59638;52.126;5.434;2023-05-09T06:21:11;101565.31;;;15.02;100.00
71791;BME280;59638;52.126;5.434;2023-05-09T06:23:37;101559.91;;;15.12;100.00
71791;BME280;59638;52.126;5.434;2023-05-09T06:26:16;101556.00;;;15.16;100.00
71791;BME280;59638;52.126;5.434;2023-05-09T06:28:42;101547.25;;;15.06;100.00
71791;BME280;59638;52.126;5.434;2023-05-09T06:31:08;101556.75;;;15.08;100.00
71791;BME280;59638;52.126;5.434;2023-05-09T06:33:35;101552.69;;;15.04;100.00
71791;BME280;59638;52.126;5.434;2023-05-09T06:36:01;101541.16;;;14.95;100.00
71791;BME280;59638;52.126;5.434;2023-05-09T06:38:28;101539.47;;;14.94;100.00
71791;BME280;59638;52.126;5.434;2023-05-09T06:40:54;101539.75;;;14.91;100.00
71791;BME280;59638;52.126;5.434;2023-05-09T06:43:21;101538.66;;;14.94;100.00
71791;BME280;59638;52.126;5.434;2023-05-09T06:45:47;101523.53;;;14.94;100.00
71791;BME280;59638;52.126;5.434;2023-05-09T06:48:13;101525.63;;;14.91;100.00
71791;BME280;59638;52.126;5.434;2023-05-09T06:50:40;101518.22;;;14.94;100.00
71791;BME280;59638;52.126;5.434;2023-05-09T06:53:06;101518.22;;;14.94;100.00
71791;BME280;59638;52.126;5.434;2023-05-09T06:55:32;101519.56;;;14.99;100.00
71791;BME280;59638;52.126;5.434;2023-05-09T06:57:59;101520.66;;;15.06;100.00
71791;BME280;59638;52.126;5.434;2023-05-09T07:00:25;101516.91;;;14.99;100.00
71791;BME280;59638;52.126;5.434;2023-05-09T07:02:52;101520.56;;;14.98;100.00
71791;BME280;59638;52.126;5.434;2023-05-09T07:05:18;101510.63;;;15.00;100.00
71791;BME280;59638;52.126;5.434;2023-05-09T07:07:45;101517.63;;;15.01;100.00
71791;BME280;59638;52.126;5.434;2023-05-09T07:10:12;101518.97;;;15.05;100.00
71791;BME280;59638;52.126;5.434;2023-05-09T07:12:39;101510.56;;;15.09;100.00
71791;BME280;59638;52.126;5.434;2023-05-09T07:15:06;101507.44;;;15.14;100.00
71791;BME280;59638;52.126;5.434;2023-05-09T07:17:32;101496.22;;;15.20;100.00
71791;BME280;59638;52.126;5.434;2023-05-09T07:19:59;101500.97;;;15.16;100.00
71791;BME280;59638;52.126;5.434;2023-05-09T07:22:25;101500.16;;;15.16;100.00
71791;BME280;59638;52.126;5.434;2023-05-09T07:24:55;101503.13;;;15.13;100.00
71791;BME280;59638;52.126;5.434;2023-05-09T07:27:21;101497.09;;;15.11;100.00
71791;BME280;59638;52.126;5.434;2023-05-09T07:29:47;101494.59;;;15.09;100.00
71791;BME280;59638;52.126;5.434;2023-05-09T07:32:18;101494.06;;;15.06;100.00
71791;BME280;59638;52.126;5.434;2023-05-09T07:34:44;101497.03;;;15.03;100.00
71791;BME280;59638;52.126;5.434;2023-05-09T07:37:11;101493.84;;;14.99;100.00
71791;BME280;59638;52.126;5.434;2023-05-09T07:39:40;101493.97;;;14.98;100.00
71791;BME280;59638;52.126;5.434;2023-05-09T07:42:07;101487.66;;;14.99;100.00
71791;BME280;59638;52.126;5.434;2023-05-09T07:44:33;101489.03;;;15.03;100.00
71791;BME280;59638;52.126;5.434;2023-05-09T07:47:00;101489.03;;;15.03;100.00
71791;BME280;59638;52.126;5.434;2023-05-09T07:49:27;101491.94;;;15.09;100.00
71791;BME280;59638;52.126;5.434;2023-05-09T07:51:54;101489.66;;;14.96;100.00
71791;BME280;59638;52.126;5.434;2023-05-09T07:54:20;101484.75;;;14.92;100.00
71791;BME280;59638;52.126;5.434;2023-05-09T07:56:46;101490.00;;;14.84;100.00
71791;BME280;59638;52.126;5.434;2023-05-09T07:59:13;101473.81;;;14.77;100.00
71791;BME280;59638;52.126;5.434;2023-05-09T08:01:39;101471.31;;;14.76;100.00
71791;BME280;59638;52.126;5.434;2023-05-09T08:04:06;101467.06;;;14.83;100.00
71791;BME280;59638;52.126;5.434;2023-05-09T08:06:34;101466.91;;;14.84;100.00
71791;BME280;59638;52.126;5.434;2023-05-09T08:09:01;101469.28;;;14.87;100.00
71791;BME280;59638;52.126;5.434;2023-05-09T08:11:28;101457.28;;;14.83;100.00
71791;BME280;59638;52.126;5.434;2023-05-09T08:13:54;101465.25;;;14.83;100.00
71791;BME280;59638;52.126;5.434;2023-05-09T08:16:21;101461.16;;;14.89;100.00
71791;BME280;59638;52.126;5.434;2023-05-09T08:18:47;101444.91;;;14.92;100.00
71791;BME280;59638;52.126;5.434;2023-05-09T08:21:13;101457.28;;;14.83;100.00
71791;BME280;59638;52.126;5.434;2023-05-09T08:23:40;101450.22;;;14.92;100.00
71791;BME280;59638;52.126;5.434;2023-05-09T08:26:06;101443.56;;;15.06;100.00
71791;BME280;59638;52.126;5.434;2023-05-09T08:28:33;101440.19;;;15.04;100.00
71791;BME280;59638;52.126;5.434;2023-05-09T08:30:59;101430.31;;;14.96;100.00
71791;BME280;59638;52.126;5.434;2023-05-09T08:33:26;101420.84;;;14.93;100.00
71791;BME280;59638;52.126;5.434;2023-05-09T08:35:52;101432.38;;;14.84;100.00
71791;BME280;59638;52.126;5.434;2023-05-09T08:38:19;101434.94;;;14.76;100.00
71791;BME280;59638;52.126;5.434;2023-05-09T08:40:46;101432.97;;;14.78;100.00
71791;BME280;59638;52.126;5.434;2023-05-09T08:43:12;101422.34;;;14.78;100.00
71791;BME280;59638;52.126;5.434;2023-05-09T08:45:56;101416.13;;;14.87;100.00
71791;BME280;59638;52.126;5.434;2023-05-09T08:48:24;101421.06;;;14.82;100.00
71791;BME280;59638;52.126;5.434;2023-05-09T08:50:51;101423.25;;;14.69;100.00
71791;BME280;59638;52.126;5.434;2023-05-09T08:53:19;101418.84;;;14.60;100.00
71791;BME280;59638;52.126;5.434;2023-05-09T08:55:46;101421.38;;;14.52;100.00
71791;BME280;59638;52.126;5.434;2023-05-09T08:58:13;101414.13;;;14.54;100.00
71791;BME280;59638;52.126;5.434;2023-05-09T09:00:40;101412.38;;;14.62;100.00
71791;BME280;59638;52.126;5.434;2023-05-09T09:03:06;101409.81;;;14.71;100.00
71791;BME280;59638;52.126;5.434;2023-05-09T09:05:36;101397.22;;;14.73;100.00
71791;BME280;59638;52.126;5.434;2023-05-09T09:08:08;101397.44;;;14.79;100.00
71791;BME280;59638;52.126;5.434;2023-05-09T09:10:38;101401.47;;;14.83;100.00
71791;BME280;59638;52.126;5.434;2023-05-09T09:13:05;101400.47;;;14.84;100.00
71791;BME280;59638;52.126;5.434;2023-05-09T09:15:35;101407.38;;;14.77;100.00
71791;BME280;59638;52.126;5.434;2023-05-09T09:18:08;101393.25;;;14.77;100.00
71791;BME280;59638;52.126;5.434;2023-05-09T09:20:47;101392.59;;;14.92;100.00
71791;BME280;59638;52.126;5.434;2023-05-09T09:23:19;101396.81;;;14.85;100.00
71791;BME280;59638;52.126;5.434;2023-05-09T09:25:46;101387.94;;;14.77;100.00
71791;BME280;59638;52.126;5.434;2023-05-09T09:28:13;101376.78;;;14.73;100.00
71791;BME280;59638;52.126;5.434;2023-05-09T09:30:44;101382.13;;;14.73;100.00
71791;BME280;59638;52.126;5.434;2023-05-09T09:33:18;101386.81;;;14.61;100.00
71791;BME280;59638;52.126;5.434;2023-05-09T09:35:44;101388.91;;;14.58;100.00
71791;BME280;59638;52.126;5.434;2023-05-09T09:38:11;101390.06;;;14.55;100.00
71791;BME280;59638;52.126;5.434;2023-05-09T09:40:37;101381.34;;;14.63;100.00
71791;BME280;59638;52.126;5.434;2023-05-09T09:43:05;101377.75;;;14.72;100.00
71791;BME280;59638;52.126;5.434;2023-05-09T09:45:32;101369.78;;;14.72;100.00
71791;BME280;59638;52.126;5.434;2023-05-09T09:48:04;101373.97;;;14.75;100.00
71791;BME280;59638;52.126;5.434;2023-05-09T09:50:32;101376.69;;;14.65;100.00
71791;BME280;59638;52.126;5.434;2023-05-09T09:52:58;101369.31;;;14.59;100.00
71791;BME280;59638;52.126;5.434;2023-05-09T09:55:28;101368.44;;;14.68;100.00
71791;BME280;59638;52.126;5.434;2023-05-09T09:57:55;101370.41;;;14.66;100.00
71791;BME280;59638;52.126;5.434;2023-05-09T10:00:26;101369.03;;;14.62;100.00
71791;BME280;59638;52.126;5.434;2023-05-09T10:02:55;101372.28;;;14.56;100.00
71791;BME280;59638;52.126;5.434;2023-05-09T10:05:23;101365.50;;;14.43;100.00
71791;BME280;59638;52.126;5.434;2023-05-09T10:07:55;101374.66;;;14.31;100.00
71791;BME280;59638;52.126;5.434;2023-05-09T10:10:31;101364.25;;;14.20;100.00
71791;BME280;59638;52.126;5.434;2023-05-09T10:13:03;101368.41;;;14.23;100.00
71791;BME280;59638;52.126;5.434;2023-05-09T10:15:30;101368.19;;;14.16;100.00
71791;BME280;59638;52.126;5.434;2023-05-09T10:18:16;101363.66;;;14.26;100.00
71791;BME280;59638;52.126;5.434;2023-05-09T10:20:45;101368.91;;;14.36;100.00
71791;BME280;59638;52.126;5.434;2023-05-09T10:23:14;101357.22;;;14.29;100.00
71791;BME280;59638;52.126;5.434;2023-05-09T10:26:31;101363.44;;;14.37;100.00
71791;BME280;59638;52.126;5.434;2023-05-09T10:28:40;101354.00;;;14.53;100.00
71791;BME280;59638;52.126;5.434;2023-05-09T10:31:24;101346.41;;;14.58;100.00
71791;BME280;59638;52.126;5.434;2023-05-09T10:33:54;101344.75;;;14.57;100.00
71791;BME280;59638;52.126;5.434;2023-05-09T10:36:23;101339.25;;;14.40;100.00
71791;BME280;59638;52.126;5.434;2023-05-09T10:38:52;101341.06;;;14.40;100.00
71791;BME280;59638;52.126;5.434;2023-05-09T10:41:20;101335.59;;;14.41;100.00
71791;BME280;59638;52.126;5.434;2023-05-09T10:43:50;101337.59;;;14.39;100.00
71791;BME280;59638;52.126;5.434;2023-05-09T10:46:16;101323.00;;;14.43;100.00
71791;BME280;59638;52.126;5.434;2023-05-09T10:48:43;101321.69;;;14.30;100.00
71791;BME280;59638;52.126;5.434;2023-05-09T10:51:11;101316.63;;;14.36;100.00
71791;BME280;59638;52.126;5.434;2023-05-09T10:53:45;101314.03;;;14.45;100.00
71791;BME280;59638;52.126;5.434;2023-05-09T10:58:52;101318.28;;;14.37;100.00
71791;BME280;59638;52.126;5.434;2023-05-09T11:01:36;101309.03;;;14.41;100.00
71791;BME280;59638;52.126;5.434;2023-05-09T11:04:15;101303.81;;;14.50;100.00
71791;BME280;59638;52.126;5.434;2023-05-09T11:06:50;101307.88;;;14.54;100.00
71791;BME280;59638;52.126;5.434;2023-05-09T11:17:05;101297.09;;;14.46;100.00
71791;BME280;59638;52.126;5.434;2023-05-09T11:22:16;101291.59;;;14.57;100.00
71791;BME280;59638;52.126;5.434;2023-05-09T11:24:52;101284.84;;;14.62;100.00
71791;BME280;59638;52.126;5.434;2023-05-09T11:27:25;101288.28;;;14.55;100.00
71791;BME280;59638;52.126;5.434;2023-05-09T11:32:21;101277.44;;;14.38;100.00
71791;BME280;59638;52.126;5.434;2023-05-09T11:34:48;101269.88;;;14.43;100.00
71791;BME280;59638;52.126;5.434;2023-05-09T11:37:16;101261.88;;;14.53;100.00
71791;BME280;59638;52.126;5.434;2023-05-09T11:40:00;101271.03;;;14.59;100.00
71791;BME280;59638;52.126;5.434;2023-05-09T11:42:28;101262.75;;;14.62;100.00
71791;BME280;59638;52.126;5.434;2023-05-09T11:44:56;101262.69;;;14.54;100.00
71791;BME280;59638;52.126;5.434;2023-05-09T11:47:24;101251.69;;;14.49;100.00
71791;BME280;59638;52.126;5.434;2023-05-09T11:49:50;101256.59;;;14.43;100.00
71791;BME280;59638;52.126;5.434;2023-05-09T11:52:18;101261.84;;;14.35;100.00
71791;BME280;59638;52.126;5.434;2023-05-09T11:54:45;101252.66;;;14.30;100.00
71791;BME280;59638;52.126;5.434;2023-05-09T11:57:12;101251.59;;;14.23;100.00
71791;BME280;59638;52.126;5.434;2023-05-09T11:59:43;101240.91;;;14.14;100.00
71791;BME280;59638;52.126;5.434;2023-05-09T12:02:10;101243.41;;;14.16;100.00
71791;BME280;59638;52.126;5.434;2023-05-09T12:04:37;101249.16;;;14.11;100.00
71791;BME280;59638;52.126;5.434;2023-05-09T12:07:04;101245.16;;;14.07;100.00
71791;BME280;59638;52.126;5.434;2023-05-09T12:09:32;101245.03;;;13.99;100.00
71791;BME280;59638;52.126;5.434;2023-05-09T12:12:00;101243.38;;;13.98;100.00
71791;BME280;59638;52.126;5.434;2023-05-09T12:14:31;101241.47;;;13.91;100.00
71791;BME280;59638;52.126;5.434;2023-05-09T12:16:57;101231.91;;;13.98;100.00
71791;BME280;59638;52.126;5.434;2023-05-09T12:19:24;101231.41;;;13.94;100.00
71791;BME280;59638;52.126;5.434;2023-05-09T12:21:55;101227.22;;;13.92;100.00
71791;BME280;59638;52.126;5.434;2023-05-09T12:24:27;101233.91;;;13.96;100.00
71791;BME280;59638;52.126;5.434;2023-05-09T12:26:55;101231.16;;;13.87;100.00
71791;BME280;59638;52.126;5.434;2023-05-09T12:29:23;101236.16;;;13.91;100.00
71791;BME280;59638;52.126;5.434;2023-05-09T12:31:51;101227.22;;;13.92;100.00
71791;BME280;59638;52.126;5.434;2023-05-09T12:34:19;101223.56;;;13.93;100.00
71791;BME280;59638;52.126;5.434;2023-05-09T12:36:46;101222.72;;;13.92;100.00
71791;BME280;59638;52.126;5.434;2023-05-09T12:39:17;101220.41;;;14.07;100.00
71791;BME280;59638;52.126;5.434;2023-05-09T12:41:44;101211.16;;;14.11;100.00
71791;BME280;59638;52.126;5.434;2023-05-09T12:44:26;101204.25;;;14.18;100.00
71791;BME280;59638;52.126;5.434;2023-05-09T12:47:00;101210.31;;;14.28;100.00
71791;BME280;59638;52.126;5.434;2023-05-09T12:49:27;101199.31;;;14.23;100.00
71791;BME280;59638;52.126;5.434;2023-05-09T12:51:55;101204.69;;;14.31;100.00
71791;BME280;59638;52.126;5.434;2023-05-09T12:54:24;101195.50;;;14.43;100.00
71791;BME280;59638;52.126;5.434;2023-05-09T12:56:52;101193.84;;;14.60;100.00
71791;BME280;59638;52.126;5.434;2023-05-09T12:59:19;101192.94;;;14.78;100.00
71791;BME280;59638;52.126;5.434;2023-05-09T13:01:58;101196.44;;;14.78;100.00
71791;BME280;59638;52.126;5.434;2023-05-09T13:04:26;101192.06;;;14.69;100.00
71791;BME280;59638;52.126;5.434;2023-05-09T13:06:54;101188.38;;;14.62;100.00
71791;BME280;59638;52.126;5.434;2023-05-09T13:09:24;101190.97;;;14.54;100.00
71791;BME280;59638;52.126;5.434;2023-05-09T13:11:51;101177.31;;;14.49;100.00